createdAt,value
2018-07-11T00:00:58.412Z,13.90
2018-07-11T00:03:52.397Z,13.90
2018-07-11T00:06:23.040Z,13.90
2018-07-11T00:08:52.359Z,13.90
2018-07-11T00:11:22.076Z,14.00
2018-07-11T00:13:51.250Z,14.00
2018-07-11T00:18:49.729Z,14.10
2018-07-11T00:21:18.948Z,14.10
2018-07-11T00:23:48.694Z,14.10
2018-07-11T00:26:24.898Z,14.10
2018-07-11T00:28:54.607Z,14.10
2018-07-11T00:31:23.855Z,14.10
2018-07-11T00:33:53.376Z,14.10
2018-07-11T00:36:23.150Z,14.10
2018-07-11T00:38:52.410Z,14.10
2018-07-11T00:41:21.685Z,14.00
2018-07-11T00:43:51.458Z,14.00
2018-07-11T00:46:20.667Z,13.90
2018-07-11T00:48:50.062Z,13.90
2018-07-11T00:51:19.780Z,13.80
2018-07-11T00:53:50.065Z,13.70
2018-07-11T00:56:19.304Z,13.60
2018-07-11T00:58:54.794Z,13.50
2018-07-11T01:01:24.333Z,13.40
2018-07-11T01:04:01.688Z,13.30
2018-07-11T01:06:31.339Z,13.40
2018-07-11T01:11:34.456Z,13.30
2018-07-11T01:14:03.771Z,13.20
2018-07-11T01:16:33.638Z,13.20
2018-07-11T01:19:07.795Z,13.20
2018-07-11T01:21:37.470Z,13.20
2018-07-11T01:24:07.021Z,13.20
2018-07-11T01:26:38.165Z,13.20
2018-07-11T01:29:09.067Z,13.10
2018-07-11T01:31:38.488Z,13.10
2018-07-11T01:34:07.705Z,13.10
2018-07-11T01:36:36.872Z,13.10
2018-07-11T01:41:34.833Z,13.10
2018-07-11T01:44:04.426Z,13.10
2018-07-11T01:46:40.159Z,13.00
2018-07-11T01:49:09.506Z,13.10
2018-07-11T01:52:55.919Z,13.00
2018-07-11T01:55:25.856Z,13.00
2018-07-11T01:57:59.143Z,13.00
2018-07-11T02:00:29.319Z,12.90
2018-07-11T02:02:58.630Z,12.90
2018-07-11T02:05:28.341Z,12.80
2018-07-11T02:07:57.584Z,12.80
2018-07-11T02:10:27.466Z,12.80
2018-07-11T02:15:26.438Z,12.70
2018-07-11T02:17:55.757Z,12.70
2018-07-11T02:20:25.017Z,12.70
2018-07-11T02:22:54.522Z,12.70
2018-07-11T02:25:23.831Z,12.70
2018-07-11T02:27:54.232Z,12.60
2018-07-11T02:30:23.759Z,12.60
2018-07-11T02:32:53.206Z,12.60
2018-07-11T02:35:22.410Z,12.60
2018-07-11T02:37:51.588Z,12.60
2018-07-11T02:40:20.810Z,12.50
2018-07-11T02:42:50.855Z,12.50
2018-07-11T02:45:20.178Z,12.50
2018-07-11T02:47:49.711Z,12.50
2018-07-11T02:50:19.813Z,12.50
2018-07-11T02:52:49.761Z,12.50
2018-07-11T02:55:21.344Z,12.50
2018-07-11T02:57:51.468Z,12.40
2018-07-11T03:00:20.928Z,12.40
2018-07-11T03:02:50.342Z,12.40
2018-07-11T03:08:54.661Z,12.40
2018-07-11T03:11:24.029Z,12.40
2018-07-11T03:13:53.786Z,12.40
2018-07-11T03:16:23.111Z,12.40
2018-07-11T03:18:52.593Z,12.30
2018-07-11T03:21:22.097Z,12.30
2018-07-11T03:23:51.796Z,12.30
2018-07-11T03:26:21.014Z,12.30
2018-07-11T03:28:50.135Z,12.30
2018-07-11T03:31:19.448Z,12.30
2018-07-11T03:33:48.766Z,12.20
2018-07-11T03:36:18.043Z,12.20
2018-07-11T03:38:47.934Z,12.20
2018-07-11T03:41:17.132Z,12.20
2018-07-11T03:43:46.432Z,12.20
2018-07-11T03:46:15.770Z,12.20
2018-07-11T03:48:44.933Z,12.30
2018-07-11T03:51:14.106Z,12.20
2018-07-11T03:53:43.531Z,12.20
2018-07-11T03:56:12.883Z,12.20
2018-07-11T03:58:42.188Z,12.20
2018-07-11T04:01:11.455Z,12.20
2018-07-11T04:03:40.969Z,12.20
2018-07-11T04:06:10.190Z,12.20
2018-07-11T04:08:39.581Z,12.30
2018-07-11T04:11:08.923Z,12.40
2018-07-11T04:13:38.259Z,12.40
2018-07-11T04:19:43.568Z,12.60
2018-07-11T04:22:12.703Z,12.70
2018-07-11T04:24:42.627Z,12.80
2018-07-11T04:27:12.741Z,12.80
2018-07-11T04:29:41.867Z,12.90
2018-07-11T04:32:11.346Z,13.00
2018-07-11T04:34:40.641Z,13.10
2018-07-11T04:37:09.972Z,13.20
2018-07-11T04:39:39.204Z,13.20
2018-07-11T04:42:08.860Z,13.30
2018-07-11T04:44:38.035Z,13.40
2018-07-11T04:47:07.330Z,13.40
2018-07-11T04:49:36.626Z,13.60
2018-07-11T04:52:06.301Z,13.70
2018-07-11T04:54:36.220Z,13.70
2018-07-11T04:57:05.366Z,13.70
2018-07-11T04:59:34.584Z,13.70
2018-07-11T05:02:03.885Z,13.70
2018-07-11T05:04:33.163Z,13.70
2018-07-11T05:07:07.108Z,13.80
2018-07-11T05:09:36.250Z,13.80
2018-07-11T05:12:05.505Z,13.80
2018-07-11T05:14:35.562Z,13.90
2018-07-11T05:17:05.008Z,14.00
2018-07-11T05:22:02.895Z,14.00
2018-07-11T05:24:32.822Z,14.10
2018-07-11T05:27:02.858Z,14.20
2018-07-11T05:29:32.331Z,14.20
2018-07-11T05:32:02.298Z,14.30
2018-07-11T05:34:31.664Z,14.30
2018-07-11T05:37:01.237Z,14.30
2018-07-11T05:39:30.721Z,14.40
2018-07-11T05:41:59.963Z,14.50
2018-07-11T05:44:29.071Z,14.50
2018-07-11T05:47:05.145Z,14.60
2018-07-11T05:49:35.742Z,14.60
2018-07-11T05:54:35.059Z,14.70
2018-07-11T05:57:05.293Z,14.70
2018-07-11T05:59:34.809Z,14.80
2018-07-11T06:02:05.951Z,14.80
2018-07-11T06:04:35.287Z,14.90
2018-07-11T06:07:05.109Z,14.90
2018-07-11T06:09:55.523Z,15.00
2018-07-11T06:12:24.855Z,15.10
2018-07-11T06:14:54.060Z,15.10
2018-07-11T06:17:23.190Z,15.20
2018-07-11T06:19:52.440Z,15.20
2018-07-11T06:22:21.747Z,15.30
2018-07-11T06:24:50.869Z,15.30
2018-07-11T06:27:20.254Z,15.40
2018-07-11T06:29:49.343Z,15.40
2018-07-11T06:32:18.783Z,15.50
2018-07-11T06:34:47.861Z,15.60
2018-07-11T06:37:17.034Z,15.60
2018-07-11T06:39:46.321Z,15.80
2018-07-11T06:42:15.951Z,15.80
2018-07-11T06:44:45.624Z,15.90
2018-07-11T06:47:15.886Z,16.00
2018-07-11T06:49:46.632Z,16.10
2018-07-11T06:52:16.432Z,16.20
2018-07-11T06:54:45.688Z,16.30
2018-07-11T06:57:14.940Z,16.50
2018-07-11T06:59:44.208Z,16.60
2018-07-11T07:04:42.094Z,16.70
2018-07-11T07:07:11.288Z,16.80
2018-07-11T07:09:41.288Z,16.90
2018-07-11T07:12:10.480Z,16.90
2018-07-11T07:14:39.704Z,17.00
2018-07-11T07:17:08.772Z,17.10
2018-07-11T07:19:37.990Z,17.20
2018-07-11T07:22:07.209Z,17.30
2018-07-11T07:24:36.291Z,17.40
2018-07-11T07:27:05.503Z,17.50
2018-07-11T07:29:34.915Z,17.50
2018-07-11T07:32:04.104Z,17.60
2018-07-11T07:37:02.334Z,17.80
2018-07-11T07:39:32.428Z,17.90
2018-07-11T07:42:02.779Z,17.90
2018-07-11T07:44:31.928Z,18.00
2018-07-11T07:47:02.203Z,18.10
2018-07-11T07:49:32.497Z,18.20
2018-07-11T07:52:01.771Z,18.20
2018-07-11T07:57:01.206Z,18.30
2018-07-11T08:01:59.369Z,18.40
2018-07-11T08:04:28.482Z,18.50
2018-07-11T08:06:57.893Z,18.60
2018-07-11T08:09:27.057Z,18.70
2018-07-11T08:11:56.448Z,18.90
2018-07-11T08:14:25.545Z,18.90
2018-07-11T08:16:54.732Z,19.00
2018-07-11T08:19:23.834Z,19.10
2018-07-11T08:21:53.385Z,19.20
2018-07-11T08:25:05.866Z,19.20
2018-07-11T08:28:20.839Z,19.40
2018-07-11T08:35:12.414Z,19.60
2018-07-11T08:38:21.124Z,19.80
2018-07-11T08:41:38.493Z,20.30
2018-07-11T08:44:22.800Z,20.20
2018-07-11T08:49:08.699Z,20.30
2018-07-11T08:52:48.432Z,20.40
2018-07-11T08:55:34.173Z,20.60
2018-07-11T09:02:57.015Z,21.50
2018-07-11T09:05:50.784Z,21.60
2018-07-11T09:08:36.628Z,21.60
2018-07-11T09:12:27.786Z,21.50
2018-07-11T09:18:12.230Z,21.50
2018-07-11T09:20:53.240Z,21.60
2018-07-11T09:23:47.282Z,21.80
2018-07-11T09:26:16.468Z,22.10
2018-07-11T09:28:45.676Z,22.20
2018-07-11T09:31:14.768Z,22.50
2018-07-11T09:33:44.234Z,22.70
2018-07-11T09:36:13.375Z,22.80
2018-07-11T09:38:42.508Z,22.70
2018-07-11T09:41:11.647Z,22.60
2018-07-11T09:43:40.863Z,22.50
2018-07-11T09:46:10.100Z,22.60
2018-07-11T09:48:39.344Z,22.90
2018-07-11T09:51:09.228Z,23.20
2018-07-11T09:53:38.566Z,23.40
2018-07-11T09:56:08.006Z,23.80
2018-07-11T09:58:37.340Z,24.00
2018-07-11T10:01:11.804Z,24.00
2018-07-11T10:03:41.658Z,23.70
2018-07-11T10:06:11.840Z,23.40
2018-07-11T10:08:41.062Z,23.20
2018-07-11T10:11:10.277Z,22.90
2018-07-11T10:13:46.358Z,22.60
2018-07-11T10:16:16.521Z,22.30
2018-07-11T10:18:54.284Z,22.30
2018-07-11T10:21:23.724Z,22.50
2018-07-11T10:23:54.420Z,22.50
2018-07-11T10:26:24.224Z,22.30
2018-07-11T10:28:53.929Z,22.50
2018-07-11T10:31:23.500Z,22.60
2018-07-11T10:33:52.821Z,22.60
2018-07-11T10:36:22.044Z,22.50
2018-07-11T10:38:51.431Z,22.40
2018-07-11T10:41:20.879Z,22.40
2018-07-11T10:43:50.575Z,22.80
2018-07-11T10:46:19.961Z,23.40
2018-07-11T10:48:49.297Z,24.10
2018-07-11T10:51:18.840Z,24.70
2018-07-11T10:53:48.088Z,25.40
2018-07-11T10:56:17.418Z,25.70
2018-07-11T10:58:47.010Z,25.80
2018-07-11T11:01:16.707Z,25.60
2018-07-11T11:03:46.004Z,25.10
2018-07-11T11:08:44.910Z,24.10
2018-07-11T11:11:14.116Z,23.60
2018-07-11T11:13:43.565Z,23.40
2018-07-11T11:16:12.782Z,23.40
2018-07-11T11:18:41.962Z,23.60
2018-07-11T11:21:11.456Z,23.80
2018-07-11T11:23:40.828Z,24.30
2018-07-11T11:26:09.943Z,24.80
2018-07-11T11:28:39.284Z,25.30
2018-07-11T11:31:08.436Z,25.60
2018-07-11T11:33:37.576Z,25.80
2018-07-11T11:36:06.857Z,25.90
2018-07-11T11:38:36.416Z,26.00
2018-07-11T11:41:05.733Z,26.00
2018-07-11T11:43:34.863Z,25.70
2018-07-11T11:46:04.216Z,25.60
2018-07-11T11:48:33.493Z,25.30
2018-07-11T11:51:02.859Z,25.20
2018-07-11T11:53:32.055Z,25.20
2018-07-11T11:56:02.248Z,25.10
2018-07-11T12:01:00.405Z,24.80
2018-07-11T12:03:29.640Z,24.70
2018-07-11T12:05:58.971Z,24.60
2018-07-11T12:08:28.090Z,24.60
2018-07-11T12:10:57.398Z,24.90
2018-07-11T12:13:26.596Z,25.40
2018-07-11T12:15:55.797Z,25.70
2018-07-11T12:18:25.750Z,26.00
2018-07-11T12:23:26.380Z,25.70
2018-07-11T12:28:28.831Z,25.20
2018-07-11T12:30:58.088Z,25.20
2018-07-11T12:33:27.518Z,25.40
2018-07-11T12:35:56.855Z,25.60
2018-07-11T12:38:26.354Z,25.70
2018-07-11T12:40:55.543Z,25.80
2018-07-11T12:43:25.403Z,26.00
2018-07-11T12:45:55.254Z,26.50
2018-07-11T12:48:29.667Z,26.50
2018-07-11T12:50:58.860Z,26.60
2018-07-11T12:53:28.732Z,27.20
2018-07-11T12:55:58.239Z,27.40
2018-07-11T12:58:27.801Z,27.50
2018-07-11T13:00:57.106Z,27.60
2018-07-11T13:03:26.458Z,27.50
2018-07-11T13:05:55.790Z,27.50
2018-07-11T13:08:25.014Z,27.50
2018-07-11T13:10:54.598Z,27.50
2018-07-11T13:13:23.918Z,27.60
2018-07-11T13:15:53.156Z,27.30
2018-07-11T13:18:22.587Z,27.00
2018-07-11T13:20:51.755Z,26.60
2018-07-11T13:23:21.260Z,26.30
2018-07-11T13:25:50.580Z,26.20
2018-07-11T13:30:48.438Z,26.00
2018-07-11T13:33:19.328Z,26.20
2018-07-11T13:35:48.507Z,26.50
2018-07-11T13:38:17.785Z,26.50
2018-07-11T13:40:46.998Z,26.30
2018-07-11T13:45:44.731Z,26.50
2018-07-11T13:48:14.053Z,27.00
2018-07-11T13:50:43.456Z,27.50
2018-07-11T13:53:12.736Z,27.60
2018-07-11T13:55:41.962Z,27.50
2018-07-11T13:58:11.180Z,27.20
2018-07-11T14:00:40.384Z,26.90
2018-07-11T14:03:09.614Z,26.60
2018-07-11T14:05:39.019Z,26.30
2018-07-11T14:08:08.286Z,26.20
2018-07-11T14:10:37.678Z,26.10
2018-07-11T14:13:06.993Z,26.20
2018-07-11T14:15:36.820Z,26.20
2018-07-11T14:18:06.254Z,26.30
2018-07-11T14:20:36.618Z,26.50
2018-07-11T14:23:07.811Z,26.70
2018-07-11T14:25:41.331Z,26.80
2018-07-11T14:28:10.722Z,26.90
2018-07-11T14:30:40.155Z,27.00
2018-07-11T14:33:10.108Z,26.70
2018-07-11T14:35:39.533Z,26.30
2018-07-11T14:38:08.810Z,26.10
2018-07-11T14:40:38.218Z,26.00
2018-07-11T14:43:07.570Z,25.90
2018-07-11T14:45:36.692Z,25.70
2018-07-11T14:48:15.160Z,25.60
2018-07-11T14:50:45.440Z,25.50
2018-07-11T14:53:14.954Z,25.50
2018-07-11T14:55:50.780Z,25.50
2018-07-11T14:58:20.050Z,25.40
2018-07-11T15:00:49.341Z,25.20
2018-07-11T15:03:18.467Z,25.00
2018-07-11T15:05:47.608Z,24.90
2018-07-11T15:08:16.944Z,24.70
2018-07-11T15:10:45.943Z,24.60
2018-07-11T15:13:15.103Z,24.60
2018-07-11T15:15:44.296Z,24.60
2018-07-11T15:18:14.208Z,24.60
2018-07-11T15:20:43.381Z,24.60
2018-07-11T15:23:12.632Z,24.70
2018-07-11T15:25:41.979Z,24.70
2018-07-11T15:28:11.229Z,24.70
2018-07-11T15:30:40.704Z,24.70
2018-07-11T15:33:09.797Z,24.80
2018-07-11T15:35:39.627Z,24.80
2018-07-11T15:38:08.796Z,24.90
2018-07-11T15:40:38.574Z,25.00
2018-07-11T15:43:07.918Z,25.10
2018-07-11T15:45:37.094Z,25.30
2018-07-11T15:48:06.462Z,25.30
2018-07-11T15:50:35.908Z,25.10
2018-07-11T15:53:05.240Z,25.00
2018-07-11T15:55:35.426Z,24.60
2018-07-11T15:58:12.357Z,24.60
2018-07-11T16:00:42.920Z,24.60
2018-07-11T16:03:13.811Z,24.60
2018-07-11T16:05:46.131Z,24.80
2018-07-11T16:08:19.616Z,25.50
2018-07-11T16:10:51.419Z,26.50
2018-07-11T16:13:21.752Z,27.40
2018-07-11T16:15:51.555Z,27.90
2018-07-11T16:18:20.799Z,28.90
2018-07-11T16:20:50.089Z,29.50
2018-07-11T16:23:19.429Z,29.70
2018-07-11T16:25:48.696Z,29.10
2018-07-11T16:28:17.877Z,28.10
2018-07-11T16:30:47.674Z,27.30
2018-07-11T16:33:16.897Z,26.80
2018-07-11T16:35:46.140Z,26.50
2018-07-11T16:38:15.404Z,26.10
2018-07-11T16:40:44.667Z,25.50
2018-07-11T16:43:14.912Z,25.00
2018-07-11T16:45:44.539Z,24.60
2018-07-11T16:48:14.236Z,24.30
2018-07-11T16:50:43.460Z,24.10
2018-07-11T16:53:12.841Z,24.20
2018-07-11T16:55:42.036Z,24.20
2018-07-11T16:58:13.458Z,24.20
2018-07-11T17:00:46.005Z,24.30
2018-07-11T17:03:15.585Z,24.40
2018-07-11T17:05:51.171Z,24.70
2018-07-11T17:08:27.965Z,24.70
2018-07-11T17:11:16.100Z,24.70
2018-07-11T17:13:56.113Z,24.70
2018-07-11T17:16:31.736Z,24.30
2018-07-11T17:19:05.613Z,24.00
2018-07-11T17:24:11.266Z,23.20
2018-07-11T17:26:44.581Z,23.00
2018-07-11T17:29:19.103Z,22.90
2018-07-11T17:31:50.448Z,22.80
2018-07-11T17:34:19.876Z,22.80
2018-07-11T17:36:52.424Z,22.70
2018-07-11T17:39:21.830Z,22.50
2018-07-11T17:41:51.392Z,22.40
2018-07-11T17:44:21.186Z,22.30
2018-07-11T17:46:51.256Z,22.20
2018-07-11T17:49:26.735Z,22.10
2018-07-11T17:52:04.375Z,22.00
2018-07-11T17:54:52.248Z,22.00
2018-07-11T17:57:26.595Z,22.00
2018-07-11T18:00:09.291Z,22.10
2018-07-11T18:02:47.059Z,22.10
2018-07-11T18:05:24.197Z,22.10
2018-07-11T18:07:53.767Z,22.10
2018-07-11T18:10:42.904Z,22.10
2018-07-11T18:13:47.331Z,22.10
2018-07-11T18:16:30.666Z,22.10
2018-07-11T18:19:10.391Z,22.10
2018-07-11T18:21:47.170Z,22.10
2018-07-11T18:27:33.797Z,22.10
2018-07-11T18:30:34.667Z,22.00
2018-07-11T18:33:15.892Z,21.80
2018-07-11T18:35:56.148Z,21.70
2018-07-11T18:39:37.980Z,21.70
2018-07-11T18:44:22.915Z,21.60
2018-07-11T18:46:58.967Z,21.50
2018-07-11T18:49:36.591Z,21.30
2018-07-11T18:52:49.120Z,21.20
2018-07-11T18:55:28.292Z,21.10
2018-07-11T19:00:17.334Z,21.00
2018-07-11T19:05:27.501Z,20.90
2018-07-11T19:09:12.824Z,20.90
2018-07-11T19:12:00.279Z,20.90
2018-07-11T19:14:40.173Z,20.80
2018-07-11T19:17:18.887Z,20.70
2018-07-11T19:19:54.494Z,20.60
2018-07-11T19:22:33.465Z,20.60
2018-07-11T19:28:16.741Z,20.50
2018-07-11T19:30:57.190Z,20.40
2018-07-11T19:36:40.243Z,20.20
2018-07-11T19:39:19.510Z,20.20
2018-07-11T19:41:59.662Z,20.10
2018-07-11T19:44:38.658Z,20.00
2018-07-11T19:50:23.227Z,19.90
2018-07-11T19:52:59.100Z,19.80
2018-07-11T19:55:44.016Z,19.60
2018-07-11T19:58:17.971Z,19.50
2018-07-11T20:00:47.138Z,19.50
2018-07-11T20:03:16.592Z,19.40
2018-07-11T20:05:53.340Z,19.40
2018-07-11T20:08:15.153Z,19.30
2018-07-11T20:13:13.149Z,19.20
2018-07-11T20:15:42.331Z,19.20
2018-07-11T20:18:11.529Z,19.20
2018-07-11T20:20:40.809Z,19.20
2018-07-11T20:23:10.325Z,19.10
2018-07-11T20:25:39.489Z,19.00
2018-07-11T20:28:09.605Z,19.00
2018-07-11T20:30:38.741Z,18.90
2018-07-11T20:33:07.814Z,18.80
2018-07-11T20:35:37.236Z,18.80
2018-07-11T20:38:07.217Z,18.80
2018-07-11T20:40:36.620Z,18.70
2018-07-11T20:43:05.954Z,18.60
2018-07-11T20:45:35.993Z,18.50
2018-07-11T20:48:05.184Z,18.40
2018-07-11T20:50:34.383Z,18.30
2018-07-11T20:53:03.547Z,18.20
2018-07-11T20:55:35.472Z,18.20
2018-07-11T20:58:16.627Z,18.10
2018-07-11T21:00:57.152Z,18.10
2018-07-11T21:07:47.157Z,18.00
2018-07-11T21:12:30.354Z,18.00
2018-07-11T21:16:33.298Z,17.80
2018-07-11T21:19:04.789Z,17.80
2018-07-11T21:21:34.827Z,17.70
2018-07-11T21:24:05.000Z,17.60
2018-07-11T21:26:34.659Z,17.60
2018-07-11T21:29:03.957Z,17.60
2018-07-11T21:31:33.412Z,17.50
2018-07-11T21:34:02.514Z,17.50
2018-07-11T21:36:32.554Z,17.50
2018-07-11T21:39:01.920Z,17.40
2018-07-11T21:41:31.087Z,17.40
2018-07-11T21:44:00.351Z,17.40
2018-07-11T21:46:29.613Z,17.40
2018-07-11T21:48:58.901Z,17.40
2018-07-11T21:51:28.109Z,17.40
2018-07-11T21:53:58.129Z,17.30
2018-07-11T21:56:27.230Z,17.20
2018-07-11T21:58:56.611Z,17.20
2018-07-11T22:01:25.886Z,17.10
2018-07-11T22:03:55.055Z,17.10
2018-07-11T22:06:24.867Z,17.00
2018-07-11T22:08:54.090Z,17.00
2018-07-11T22:11:23.229Z,16.90
2018-07-11T22:13:52.384Z,16.90
2018-07-11T22:16:21.688Z,16.80
2018-07-11T22:18:50.953Z,16.80
2018-07-11T22:21:18.893Z,16.80
2018-07-11T22:23:46.837Z,16.70
2018-07-11T22:26:14.807Z,16.70
2018-07-11T22:28:42.720Z,16.70
2018-07-11T22:31:10.657Z,16.60
2018-07-11T22:33:38.791Z,16.60
2018-07-11T22:36:06.907Z,16.60
2018-07-11T22:38:34.879Z,16.60
2018-07-11T22:41:02.811Z,16.50
2018-07-11T22:45:59.047Z,16.60
2018-07-11T22:48:27.042Z,16.60
2018-07-11T22:50:55.133Z,16.60
2018-07-11T22:55:58.038Z,16.50
2018-07-11T22:58:37.752Z,16.40
2018-07-11T23:01:20.613Z,16.30
2018-07-11T23:04:06.419Z,16.30
2018-07-11T23:06:35.377Z,16.30
2018-07-11T23:09:04.418Z,16.30
2018-07-11T23:14:01.144Z,16.30
2018-07-11T23:16:29.089Z,16.30
2018-07-11T23:18:57.047Z,16.30
2018-07-11T23:21:25.169Z,16.30
2018-07-11T23:23:53.139Z,16.30
2018-07-11T23:26:21.197Z,16.40
2018-07-11T23:28:49.231Z,16.40
2018-07-11T23:31:17.174Z,16.50
2018-07-11T23:33:45.146Z,16.50
2018-07-11T23:36:13.096Z,16.60
2018-07-11T23:38:41.170Z,16.60
2018-07-11T23:41:09.122Z,16.60
2018-07-11T23:43:37.072Z,16.60
2018-07-11T23:46:05.029Z,16.60
2018-07-11T23:48:32.968Z,16.60
2018-07-11T23:51:00.938Z,16.70
2018-07-11T23:53:28.879Z,16.70
2018-07-11T23:55:57.090Z,16.70
2018-07-11T23:58:25.143Z,16.70
